sensor_id;sensor_type;location;lat;lon;timestamp;P1;durP1;ratioP1;P2;durP2;ratioP2
51006;SDS011;37034;47.886;-3.904;2024-01-15T00:01:44;34.97;;;20.97;;
51006;SDS011;37034;47.886;-3.904;2024-01-15T00:04:09;27.00;;;17.80;;
51006;SDS011;37034;47.886;-3.904;2024-01-15T00:06:35;29.55;;;18.52;;
51006;SDS011;37034;47.886;-3.904;2024-01-15T00:09:01;25.57;;;17.43;;
51006;SDS011;37034;47.886;-3.904;2024-01-15T00:11:27;27.85;;;17.85;;
51006;SDS011;37034;47.886;-3.904;2024-01-15T00:13:53;19.27;;;11.97;;
51006;SDS011;37034;47.886;-3.904;2024-01-15T00:16:18;32.13;;;18.70;;
51006;SDS011;37034;47.886;-3.904;2024-01-15T00:18:44;22.30;;;13.77;;
51006;SDS011;37034;47.886;-3.904;2024-01-15T00:21:10;22.20;;;13.50;;
51006;SDS011;37034;47.886;-3.904;2024-01-15T00:23:35;20.83;;;14.10;;
51006;SDS011;37034;47.886;-3.904;2024-01-15T00:26:01;24.13;;;15.30;;
51006;SDS011;37034;47.886;-3.904;2024-01-15T00:28:27;27.97;;;17.37;;
51006;SDS011;37034;47.886;-3.904;2024-01-15T00:30:52;24.63;;;16.37;;
51006;SDS011;37034;47.886;-3.904;2024-01-15T00:33:18;26.60;;;16.23;;
51006;SDS011;37034;47.886;-3.904;2024-01-15T00:35:44;21.27;;;14.17;;
51006;SDS011;37034;47.886;-3.904;2024-01-15T00:38:09;26.10;;;15.97;;
51006;SDS011;37034;47.886;-3.904;2024-01-15T00:40:35;23.83;;;15.30;;
51006;SDS011;37034;47.886;-3.904;2024-01-15T00:43:00;23.30;;;15.17;;
51006;SDS011;37034;47.886;-3.904;2024-01-15T00:45:27;22.27;;;14.25;;
51006;SDS011;37034;47.886;-3.904;2024-01-15T00:47:52;24.00;;;16.00;;
51006;SDS011;37034;47.886;-3.904;2024-01-15T00:50:21;21.60;;;14.07;;
51006;SDS011;37034;47.886;-3.904;2024-01-15T00:52:47;15.10;;;10.37;;
51006;SDS011;37034;47.886;-3.904;2024-01-15T00:55:12;21.10;;;13.70;;
51006;SDS011;37034;47.886;-3.904;2024-01-15T00:57:38;23.90;;;14.60;;
51006;SDS011;37034;47.886;-3.904;2024-01-15T01:00:04;21.10;;;14.55;;
51006;SDS011;37034;47.886;-3.904;2024-01-15T01:02:31;26.95;;;15.45;;
51006;SDS011;37034;47.886;-3.904;2024-01-15T01:04:57;23.57;;;14.57;;
51006;SDS011;37034;47.886;-3.904;2024-01-15T01:07:22;22.17;;;14.60;;
51006;SDS011;37034;47.886;-3.904;2024-01-15T01:09:48;27.57;;;16.27;;
51006;SDS011;37034;47.886;-3.904;2024-01-15T01:12:14;23.00;;;15.50;;
51006;SDS011;37034;47.886;-3.904;2024-01-15T01:14:40;23.07;;;14.83;;
51006;SDS011;37034;47.886;-3.904;2024-01-15T01:17:05;23.47;;;15.10;;
51006;SDS011;37034;47.886;-3.904;2024-01-15T01:19:31;22.97;;;14.90;;
51006;SDS011;37034;47.886;-3.904;2024-01-15T01:21:56;20.57;;;13.37;;
51006;SDS011;37034;47.886;-3.904;2024-01-15T01:24:22;21.73;;;14.13;;
51006;SDS011;37034;47.886;-3.904;2024-01-15T01:26:48;28.77;;;17.10;;
51006;SDS011;37034;47.886;-3.904;2024-01-15T01:29:14;17.38;;;10.98;;
51006;SDS011;37034;47.886;-3.904;2024-01-15T01:31:43;26.13;;;15.93;;
51006;SDS011;37034;47.886;-3.904;2024-01-15T01:34:10;21.90;;;13.85;;
51006;SDS011;37034;47.886;-3.904;2024-01-15T01:36:36;24.15;;;15.35;;
51006;SDS011;37034;47.886;-3.904;2024-01-15T01:39:01;14.77;;;9.97;;
51006;SDS011;37034;47.886;-3.904;2024-01-15T01:41:27;18.97;;;12.03;;
51006;SDS011;37034;47.886;-3.904;2024-01-15T01:43:53;25.97;;;15.27;;
51006;SDS011;37034;47.886;-3.904;2024-01-15T01:46:18;18.43;;;12.57;;
51006;SDS011;37034;47.886;-3.904;2024-01-15T01:48:44;22.17;;;12.87;;
51006;SDS011;37034;47.886;-3.904;2024-01-15T01:51:10;22.87;;;13.43;;
51006;SDS011;37034;47.886;-3.904;2024-01-15T01:53:36;18.45;;;12.25;;
51006;SDS011;37034;47.886;-3.904;2024-01-15T01:56:03;18.65;;;12.45;;
51006;SDS011;37034;47.886;-3.904;2024-01-15T01:58:29;20.10;;;13.60;;
51006;SDS011;37034;47.886;-3.904;2024-01-15T02:00:57;17.02;;;11.45;;
51006;SDS011;37034;47.886;-3.904;2024-01-15T02:03:24;19.88;;;12.95;;
51006;SDS011;37034;47.886;-3.904;2024-01-15T02:05:51;20.35;;;13.32;;
51006;SDS011;37034;47.886;-3.904;2024-01-15T02:08:18;16.88;;;11.65;;
51006;SDS011;37034;47.886;-3.904;2024-01-15T02:10:43;13.50;;;8.52;;
51006;SDS011;37034;47.886;-3.904;2024-01-15T02:13:09;16.57;;;11.27;;
51006;SDS011;37034;47.886;-3.904;2024-01-15T02:15:35;16.50;;;11.50;;
51006;SDS011;37034;47.886;-3.904;2024-01-15T02:18:01;17.37;;;11.33;;
51006;SDS011;37034;47.886;-3.904;2024-01-15T02:20:27;18.35;;;10.95;;
51006;SDS011;37034;47.886;-3.904;2024-01-15T02:22:53;12.55;;;8.30;;
51006;SDS011;37034;47.886;-3.904;2024-01-15T02:25:19;17.38;;;10.85;;
51006;SDS011;37034;47.886;-3.904;2024-01-15T02:27:45;18.95;;;11.18;;
51006;SDS011;37034;47.886;-3.904;2024-01-15T02:30:12;14.50;;;9.82;;
51006;SDS011;37034;47.886;-3.904;2024-01-15T02:32:38;14.60;;;9.68;;
51006;SDS011;37034;47.886;-3.904;2024-01-15T02:35:04;13.95;;;9.75;;
51006;SDS011;37034;47.886;-3.904;2024-01-15T02:37:30;11.15;;;7.07;;
51006;SDS011;37034;47.886;-3.904;2024-01-15T02:39:55;17.33;;;10.80;;
51006;SDS011;37034;47.886;-3.904;2024-01-15T02:42:21;18.53;;;10.53;;
51006;SDS011;37034;47.886;-3.904;2024-01-15T02:44:46;17.37;;;11.00;;
